sensor_id;sensor_type;location;lat;lon;timestamp;P1;durP1;ratioP1;P2;durP2;ratioP2
16127;SDS011;8168;49.036;7.690;2023-05-10T00:01:06;1.97;;;1.83;;
16127;SDS011;8168;49.036;7.690;2023-05-10T00:03:36;1.73;;;1.63;;
16127;SDS011;8168;49.036;7.690;2023-05-10T00:06:07;2.20;;;1.80;;
16127;SDS011;8168;49.036;7.690;2023-05-10T00:08:37;1.87;;;1.60;;
16127;SDS011;8168;49.036;7.690;2023-05-10T00:11:08;2.37;;;1.83;;
16127;SDS011;8168;49.036;7.690;2023-05-10T00:13:38;2.40;;;2.20;;
16127;SDS011;8168;49.036;7.690;2023-05-10T00:16:09;2.40;;;2.20;;
16127;SDS011;8168;49.036;7.690;2023-05-10T00:18:44;2.40;;;2.20;;
16127;SDS011;8168;49.036;7.690;2023-05-10T00:21:15;2.23;;;2.10;;
16127;SDS011;8168;49.036;7.690;2023-05-10T00:23:45;2.13;;;1.93;;
16127;SDS011;8168;49.036;7.690;2023-05-10T00:26:16;2.10;;;1.90;;
16127;SDS011;8168;49.036;7.690;2023-05-10T00:28:47;2.13;;;1.90;;
16127;SDS011;8168;49.036;7.690;2023-05-10T00:31:17;2.20;;;2.00;;
16127;SDS011;8168;49.036;7.690;2023-05-10T00:33:48;2.27;;;2.07;;
16127;SDS011;8168;49.036;7.690;2023-05-10T00:36:18;1.80;;;1.70;;
16127;SDS011;8168;49.036;7.690;2023-05-10T00:38:49;2.23;;;2.03;;
16127;SDS011;8168;49.036;7.690;2023-05-10T00:41:20;2.07;;;1.90;;
16127;SDS011;8168;49.036;7.690;2023-05-10T00:43:51;2.20;;;2.00;;
16127;SDS011;8168;49.036;7.690;2023-05-10T00:46:22;2.20;;;2.00;;
16127;SDS011;8168;49.036;7.690;2023-05-10T00:48:53;1.67;;;1.57;;
16127;SDS011;8168;49.036;7.690;2023-05-10T00:51:24;2.27;;;1.77;;
16127;SDS011;8168;49.036;7.690;2023-05-10T00:53:55;2.10;;;1.90;;
16127;SDS011;8168;49.036;7.690;2023-05-10T00:56:26;1.90;;;1.70;;
16127;SDS011;8168;49.036;7.690;2023-05-10T00:58:58;2.20;;;1.90;;
16127;SDS011;8168;49.036;7.690;2023-05-10T01:01:29;1.47;;;1.37;;
16127;SDS011;8168;49.036;7.690;2023-05-10T01:04:00;1.60;;;1.50;;
16127;SDS011;8168;49.036;7.690;2023-05-10T01:06:31;1.73;;;1.63;;
16127;SDS011;8168;49.036;7.690;2023-05-10T01:09:02;2.57;;;2.07;;
16127;SDS011;8168;49.036;7.690;2023-05-10T01:11:33;1.60;;;1.50;;
16127;SDS011;8168;49.036;7.690;2023-05-10T01:14:05;1.97;;;1.80;;
16127;SDS011;8168;49.036;7.690;2023-05-10T01:16:37;1.53;;;1.43;;
16127;SDS011;8168;49.036;7.690;2023-05-10T01:19:12;2.00;;;1.80;;
16127;SDS011;8168;49.036;7.690;2023-05-10T01:24:58;1.67;;;1.57;;
16127;SDS011;8168;49.036;7.690;2023-05-10T01:36:17;1.70;;;1.60;;
16127;SDS011;8168;49.036;7.690;2023-05-10T01:39:01;2.00;;;1.80;;
16127;SDS011;8168;49.036;7.690;2023-05-10T01:41:45;2.97;;;1.80;;
16127;SDS011;8168;49.036;7.690;2023-05-10T01:47:03;1.90;;;1.80;;
16127;SDS011;8168;49.036;7.690;2023-05-10T01:49:45;2.60;;;1.83;;
16127;SDS011;8168;49.036;7.690;2023-05-10T01:52:22;1.80;;;1.70;;
16127;SDS011;8168;49.036;7.690;2023-05-10T01:55:04;2.00;;;1.80;;
16127;SDS011;8168;49.036;7.690;2023-05-10T01:57:38;5.07;;;1.90;;
16127;SDS011;8168;49.036;7.690;2023-05-10T02:00:10;2.67;;;1.90;;
16127;SDS011;8168;49.036;7.690;2023-05-10T02:02:46;2.30;;;2.10;;
16127;SDS011;8168;49.036;7.690;2023-05-10T02:05:18;2.00;;;1.80;;
16127;SDS011;8168;49.036;7.690;2023-05-10T02:07:51;2.03;;;1.77;;
16127;SDS011;8168;49.036;7.690;2023-05-10T02:10:22;2.00;;;1.80;;
16127;SDS011;8168;49.036;7.690;2023-05-10T02:12:53;2.10;;;1.90;;
16127;SDS011;8168;49.036;7.690;2023-05-10T02:15:28;2.00;;;1.90;;
16127;SDS011;8168;49.036;7.690;2023-05-10T02:18:00;2.53;;;1.87;;
16127;SDS011;8168;49.036;7.690;2023-05-10T02:20:32;2.10;;;2.00;;
16127;SDS011;8168;49.036;7.690;2023-05-10T02:23:04;2.20;;;2.00;;
16127;SDS011;8168;49.036;7.690;2023-05-10T02:25:37;4.57;;;2.20;;
16127;SDS011;8168;49.036;7.690;2023-05-10T02:28:08;4.43;;;1.83;;
16127;SDS011;8168;49.036;7.690;2023-05-10T02:30:41;2.20;;;2.00;;
16127;SDS011;8168;49.036;7.690;2023-05-10T02:33:12;3.03;;;2.20;;
16127;SDS011;8168;49.036;7.690;2023-05-10T02:35:44;2.57;;;2.37;;
16127;SDS011;8168;49.036;7.690;2023-05-10T02:38:16;2.90;;;2.00;;
16127;SDS011;8168;49.036;7.690;2023-05-10T02:40:50;3.40;;;2.10;;
16127;SDS011;8168;49.036;7.690;2023-05-10T02:43:22;2.13;;;2.00;;
16127;SDS011;8168;49.036;7.690;2023-05-10T02:45:53;3.57;;;2.00;;
16127;SDS011;8168;49.036;7.690;2023-05-10T02:48:24;5.23;;;2.10;;
16127;SDS011;8168;49.036;7.690;2023-05-10T02:50:55;2.43;;;1.97;;
16127;SDS011;8168;49.036;7.690;2023-05-10T02:53:31;3.30;;;1.93;;
16127;SDS011;8168;49.036;7.690;2023-05-10T02:56:10;2.00;;;1.90;;
16127;SDS011;8168;49.036;7.690;2023-05-10T02:58:45;2.30;;;2.10;;
16127;SDS011;8168;49.036;7.690;2023-05-10T03:01:16;3.30;;;1.90;;
16127;SDS011;8168;49.036;7.690;2023-05-10T03:03:47;3.53;;;2.40;;
16127;SDS011;8168;49.036;7.690;2023-05-10T03:06:17;3.03;;;2.43;;
16127;SDS011;8168;49.036;7.690;2023-05-10T03:08:48;3.17;;;2.30;;
16127;SDS011;8168;49.036;7.690;2023-05-10T03:17:25;5.47;;;2.20;;
16127;SDS011;8168;49.036;7.690;2023-05-10T03:20:03;2.90;;;2.00;;
16127;SDS011;8168;49.036;7.690;2023-05-10T03:22:41;4.17;;;2.10;;
16127;SDS011;8168;49.036;7.690;2023-05-10T03:25:16;4.97;;;2.07;;
16127;SDS011;8168;49.036;7.690;2023-05-10T03:27:50;2.30;;;2.10;;
16127;SDS011;8168;49.036;7.690;2023-05-10T03:30:22;2.60;;;2.03;;
16127;SDS011;8168;49.036;7.690;2023-05-10T03:32:54;2.33;;;2.13;;
16127;SDS011;8168;49.036;7.690;2023-05-10T03:35:24;2.70;;;2.50;;
16127;SDS011;8168;49.036;7.690;2023-05-10T03:37:55;2.20;;;2.00;;
16127;SDS011;8168;49.036;7.690;2023-05-10T03:40:26;2.67;;;2.47;;
16127;SDS011;8168;49.036;7.690;2023-05-10T03:42:58;3.83;;;2.10;;
16127;SDS011;8168;49.036;7.690;2023-05-10T03:45:29;2.37;;;2.17;;
16127;SDS011;8168;49.036;7.690;2023-05-10T03:48:00;2.40;;;2.10;;
16127;SDS011;8168;49.036;7.690;2023-05-10T03:50:31;2.33;;;2.13;;
16127;SDS011;8168;49.036;7.690;2023-05-10T03:53:01;1.90;;;1.80;;
16127;SDS011;8168;49.036;7.690;2023-05-10T03:55:32;2.70;;;1.93;;
16127;SDS011;8168;49.036;7.690;2023-05-10T03:58:06;3.53;;;2.07;;
16127;SDS011;8168;49.036;7.690;2023-05-10T04:00:36;4.03;;;2.17;;
16127;SDS011;8168;49.036;7.690;2023-05-10T04:03:07;2.67;;;2.10;;
16127;SDS011;8168;49.036;7.690;2023-05-10T04:05:38;2.03;;;1.90;;
16127;SDS011;8168;49.036;7.690;2023-05-10T04:08:08;4.40;;;2.20;;
16127;SDS011;8168;49.036;7.690;2023-05-10T04:10:39;2.10;;;1.90;;
16127;SDS011;8168;49.036;7.690;2023-05-10T04:13:10;2.40;;;1.97;;
16127;SDS011;8168;49.036;7.690;2023-05-10T04:15:41;2.67;;;1.67;;
16127;SDS011;8168;49.036;7.690;2023-05-10T04:18:11;3.90;;;2.37;;
16127;SDS011;8168;49.036;7.690;2023-05-10T04:20:42;2.97;;;2.03;;
16127;SDS011;8168;49.036;7.690;2023-05-10T04:23:12;3.57;;;1.90;;
16127;SDS011;8168;49.036;7.690;2023-05-10T04:25:45;2.43;;;1.87;;
16127;SDS011;8168;49.036;7.690;2023-05-10T04:28:15;2.43;;;1.83;;
16127;SDS011;8168;49.036;7.690;2023-05-10T04:30:46;2.30;;;1.90;;
16127;SDS011;8168;49.036;7.690;2023-05-10T04:33:17;5.00;;;2.13;;
16127;SDS011;8168;49.036;7.690;2023-05-10T04:35:47;2.00;;;1.90;;
16127;SDS011;8168;49.036;7.690;2023-05-10T04:38:18;1.70;;;1.53;;
16127;SDS011;8168;49.036;7.690;2023-05-10T04:40:48;1.90;;;1.80;;
16127;SDS011;8168;49.036;7.690;2023-05-10T04:43:19;5.03;;;2.20;;
16127;SDS011;8168;49.036;7.690;2023-05-10T04:45:50;3.27;;;2.40;;
16127;SDS011;8168;49.036;7.690;2023-05-10T04:48:20;3.27;;;2.90;;
16127;SDS011;8168;49.036;7.690;2023-05-10T04:50:51;2.00;;;1.90;;
16127;SDS011;8168;49.036;7.690;2023-05-10T04:53:22;2.30;;;2.10;;
16127;SDS011;8168;49.036;7.690;2023-05-10T04:55:52;2.90;;;2.00;;
16127;SDS011;8168;49.036;7.690;2023-05-10T04:58:23;2.60;;;2.27;;
16127;SDS011;8168;49.036;7.690;2023-05-10T05:00:54;2.33;;;1.97;;
16127;SDS011;8168;49.036;7.690;2023-05-10T05:03:24;2.33;;;2.13;;
16127;SDS011;8168;49.036;7.690;2023-05-10T05:05:55;2.47;;;2.27;;
16127;SDS011;8168;49.036;7.690;2023-05-10T05:08:25;2.13;;;1.93;;
16127;SDS011;8168;49.036;7.690;2023-05-10T05:10:56;2.47;;;2.27;;
16127;SDS011;8168;49.036;7.690;2023-05-10T05:13:27;2.40;;;2.20;;
16127;SDS011;8168;49.036;7.690;2023-05-10T05:15:59;2.73;;;2.50;;
16127;SDS011;8168;49.036;7.690;2023-05-10T05:18:31;2.43;;;2.20;;
16127;SDS011;8168;49.036;7.690;2023-05-10T05:21:01;2.97;;;2.37;;
16127;SDS011;8168;49.036;7.690;2023-05-10T05:23:32;3.90;;;2.47;;
16127;SDS011;8168;49.036;7.690;2023-05-10T05:26:03;2.30;;;2.10;;
16127;SDS011;8168;49.036;7.690;2023-05-10T05:28:33;2.00;;;1.80;;
16127;SDS011;8168;49.036;7.690;2023-05-10T05:31:07;2.93;;;1.87;;
16127;SDS011;8168;49.036;7.690;2023-05-10T05:33:37;2.53;;;2.00;;
16127;SDS011;8168;49.036;7.690;2023-05-10T05:36:08;1.57;;;1.47;;
16127;SDS011;8168;49.036;7.690;2023-05-10T05:38:39;1.90;;;1.80;;
16127;SDS011;8168;49.036;7.690;2023-05-10T05:41:09;3.47;;;2.00;;
16127;SDS011;8168;49.036;7.690;2023-05-10T05:43:40;1.63;;;1.50;;
16127;SDS011;8168;49.036;7.690;2023-05-10T05:46:11;1.40;;;1.30;;
16127;SDS011;8168;49.036;7.690;2023-05-10T05:48:41;3.03;;;2.00;;
16127;SDS011;8168;49.036;7.690;2023-05-10T05:51:12;1.60;;;1.50;;
16127;SDS011;8168;49.036;7.690;2023-05-10T05:53:42;3.67;;;1.60;;
16127;SDS011;8168;49.036;7.690;2023-05-10T05:56:13;1.60;;;1.50;;
16127;SDS011;8168;49.036;7.690;2023-05-10T05:58:43;3.43;;;1.63;;
16127;SDS011;8168;49.036;7.690;2023-05-10T06:01:14;1.53;;;1.40;;
16127;SDS011;8168;49.036;7.690;2023-05-10T06:03:45;1.70;;;1.60;;
16127;SDS011;8168;49.036;7.690;2023-05-10T06:06:15;1.60;;;1.50;;
16127;SDS011;8168;49.036;7.690;2023-05-10T06:08:46;1.40;;;1.30;;
16127;SDS011;8168;49.036;7.690;2023-05-10T06:11:17;1.40;;;1.30;;
16127;SDS011;8168;49.036;7.690;2023-05-10T06:13:47;1.30;;;1.20;;
16127;SDS011;8168;49.036;7.690;2023-05-10T06:16:18;1.30;;;1.20;;
16127;SDS011;8168;49.036;7.690;2023-05-10T06:18:48;1.63;;;1.53;;
16127;SDS011;8168;49.036;7.690;2023-05-10T06:21:19;2.07;;;1.63;;
16127;SDS011;8168;49.036;7.690;2023-05-10T06:23:50;1.43;;;1.33;;
16127;SDS011;8168;49.036;7.690;2023-05-10T06:26:20;1.40;;;1.30;;
16127;SDS011;8168;49.036;7.690;2023-05-10T06:28:51;1.37;;;1.27;;
16127;SDS011;8168;49.036;7.690;2023-05-10T06:31:21;2.70;;;1.07;;
16127;SDS011;8168;49.036;7.690;2023-05-10T06:33:52;1.27;;;1.20;;
16127;SDS011;8168;49.036;7.690;2023-05-10T06:36:23;1.40;;;1.30;;
16127;SDS011;8168;49.036;7.690;2023-05-10T06:38:56;1.47;;;1.37;;
16127;SDS011;8168;49.036;7.690;2023-05-10T06:41:26;2.10;;;1.10;;
16127;SDS011;8168;49.036;7.690;2023-05-10T06:43:57;1.00;;;1.00;;
16127;SDS011;8168;49.036;7.690;2023-05-10T06:46:28;1.37;;;1.27;;
16127;SDS011;8168;49.036;7.690;2023-05-10T06:48:58;1.20;;;1.20;;
16127;SDS011;8168;49.036;7.690;2023-05-10T06:51:29;1.40;;;1.30;;
16127;SDS011;8168;49.036;7.690;2023-05-10T06:53:59;1.00;;;1.00;;
16127;SDS011;8168;49.036;7.690;2023-05-10T06:56:31;1.30;;;1.20;;
16127;SDS011;8168;49.036;7.690;2023-05-10T06:59:01;3.27;;;1.50;;
16127;SDS011;8168;49.036;7.690;2023-05-10T07:01:32;1.37;;;1.27;;
16127;SDS011;8168;49.036;7.690;2023-05-10T07:04:03;1.30;;;1.20;;
16127;SDS011;8168;49.036;7.690;2023-05-10T07:06:33;1.60;;;1.50;;
16127;SDS011;8168;49.036;7.690;2023-05-10T07:09:04;1.40;;;1.30;;
16127;SDS011;8168;49.036;7.690;2023-05-10T07:11:35;1.87;;;1.47;;
16127;SDS011;8168;49.036;7.690;2023-05-10T07:14:07;1.10;;;1.00;;
16127;SDS011;8168;49.036;7.690;2023-05-10T07:16:37;1.90;;;1.33;;
16127;SDS011;8168;49.036;7.690;2023-05-10T07:19:08;1.00;;;1.00;;
16127;SDS011;8168;49.036;7.690;2023-05-10T07:21:39;1.77;;;1.20;;
16127;SDS011;8168;49.036;7.690;2023-05-10T07:24:12;1.30;;;1.20;;
16127;SDS011;8168;49.036;7.690;2023-05-10T07:26:43;1.67;;;1.57;;
16127;SDS011;8168;49.036;7.690;2023-05-10T07:29:13;1.30;;;1.20;;
16127;SDS011;8168;49.036;7.690;2023-05-10T07:31:44;1.40;;;1.30;;
16127;SDS011;8168;49.036;7.690;2023-05-10T07:34:14;1.33;;;1.23;;
16127;SDS011;8168;49.036;7.690;2023-05-10T07:36:45;1.40;;;1.30;;
16127;SDS011;8168;49.036;7.690;2023-05-10T07:39:16;0.90;;;0.90;;
16127;SDS011;8168;49.036;7.690;2023-05-10T07:41:47;3.03;;;1.17;;
16127;SDS011;8168;49.036;7.690;2023-05-10T07:44:17;1.70;;;1.17;;
16127;SDS011;8168;49.036;7.690;2023-05-10T07:46:49;2.33;;;1.20;;
16127;SDS011;8168;49.036;7.690;2023-05-10T07:49:20;3.73;;;1.33;;
16127;SDS011;8168;49.036;7.690;2023-05-10T07:51:50;1.50;;;1.00;;
16127;SDS011;8168;49.036;7.690;2023-05-10T07:54:21;1.40;;;1.30;;
16127;SDS011;8168;49.036;7.690;2023-05-10T07:56:51;1.17;;;1.07;;
16127;SDS011;8168;49.036;7.690;2023-05-10T07:59:22;1.63;;;1.00;;
16127;SDS011;8168;49.036;7.690;2023-05-10T08:01:53;1.40;;;1.30;;
16127;SDS011;8168;49.036;7.690;2023-05-10T08:04:23;1.60;;;1.10;;
16127;SDS011;8168;49.036;7.690;2023-05-10T08:06:54;1.30;;;1.20;;
16127;SDS011;8168;49.036;7.690;2023-05-10T08:09:24;1.00;;;0.90;;
16127;SDS011;8168;49.036;7.690;2023-05-10T08:11:55;1.00;;;1.00;;
16127;SDS011;8168;49.036;7.690;2023-05-10T08:14:27;0.90;;;0.70;;
16127;SDS011;8168;49.036;7.690;2023-05-10T08:16:59;0.87;;;0.73;;
16127;SDS011;8168;49.036;7.690;2023-05-10T08:19:29;0.90;;;0.90;;
16127;SDS011;8168;49.036;7.690;2023-05-10T08:22:00;0.80;;;0.80;;
16127;SDS011;8168;49.036;7.690;2023-05-10T08:24:31;1.50;;;0.70;;
16127;SDS011;8168;49.036;7.690;2023-05-10T08:27:01;0.97;;;0.97;;
16127;SDS011;8168;49.036;7.690;2023-05-10T08:29:32;3.90;;;0.90;;
16127;SDS011;8168;49.036;7.690;2023-05-10T08:32:02;2.07;;;0.97;;
16127;SDS011;8168;49.036;7.690;2023-05-10T08:34:33;1.33;;;0.80;;
16127;SDS011;8168;49.036;7.690;2023-05-10T08:37:04;1.30;;;0.97;;
16127;SDS011;8168;49.036;7.690;2023-05-10T08:39:35;1.80;;;0.80;;
16127;SDS011;8168;49.036;7.690;2023-05-10T08:42:05;0.70;;;0.70;;
16127;SDS011;8168;49.036;7.690;2023-05-10T08:44:38;0.67;;;0.67;;
16127;SDS011;8168;49.036;7.690;2023-05-10T08:47:09;1.83;;;0.80;;
16127;SDS011;8168;49.036;7.690;2023-05-10T08:49:41;1.27;;;0.80;;
16127;SDS011;8168;49.036;7.690;2023-05-10T08:52:13;2.97;;;1.00;;
16127;SDS011;8168;49.036;7.690;2023-05-10T08:54:46;0.80;;;0.80;;
16127;SDS011;8168;49.036;7.690;2023-05-10T08:57:18;2.07;;;0.70;;
16127;SDS011;8168;49.036;7.690;2023-05-10T08:59:49;3.00;;;0.90;;
16127;SDS011;8168;49.036;7.690;2023-05-10T09:02:20;1.47;;;0.90;;
16127;SDS011;8168;49.036;7.690;2023-05-10T09:04:51;0.80;;;0.70;;
16127;SDS011;8168;49.036;7.690;2023-05-10T09:07:22;2.30;;;0.90;;
16127;SDS011;8168;49.036;7.690;2023-05-10T09:09:53;1.63;;;0.83;;
16127;SDS011;8168;49.036;7.690;2023-05-10T09:12:24;1.57;;;1.20;;
16127;SDS011;8168;49.036;7.690;2023-05-10T09:14:55;0.70;;;0.70;;
16127;SDS011;8168;49.036;7.690;2023-05-10T09:17:27;1.00;;;0.90;;
16127;SDS011;8168;49.036;7.690;2023-05-10T09:20:00;1.23;;;1.00;;
16127;SDS011;8168;49.036;7.690;2023-05-10T09:22:31;2.90;;;1.00;;
16127;SDS011;8168;49.036;7.690;2023-05-10T09:27:44;3.60;;;0.90;;
16127;SDS011;8168;49.036;7.690;2023-05-10T09:30:17;0.80;;;0.80;;
16127;SDS011;8168;49.036;7.690;2023-05-10T09:32:48;1.10;;;0.93;;
16127;SDS011;8168;49.036;7.690;2023-05-10T09:35:20;1.50;;;0.90;;
16127;SDS011;8168;49.036;7.690;2023-05-10T09:37:53;1.00;;;0.90;;
16127;SDS011;8168;49.036;7.690;2023-05-10T09:40:26;1.53;;;0.97;;
16127;SDS011;8168;49.036;7.690;2023-05-10T09:45:32;1.80;;;1.00;;
16127;SDS011;8168;49.036;7.690;2023-05-10T09:48:04;4.70;;;1.07;;
16127;SDS011;8168;49.036;7.690;2023-05-10T09:50:35;1.83;;;1.30;;
16127;SDS011;8168;49.036;7.690;2023-05-10T09:53:06;2.27;;;1.17;;
16127;SDS011;8168;49.036;7.690;2023-05-10T09:55:44;2.03;;;0.83;;
16127;SDS011;8168;49.036;7.690;2023-05-10T09:58:16;1.43;;;0.93;;
16127;SDS011;8168;49.036;7.690;2023-05-10T10:00:46;1.37;;;1.00;;
16127;SDS011;8168;49.036;7.690;2023-05-10T10:03:21;1.57;;;1.00;;
16127;SDS011;8168;49.036;7.690;2023-05-10T10:05:52;2.10;;;0.87;;
16127;SDS011;8168;49.036;7.690;2023-05-10T10:08:25;0.80;;;0.80;;
16127;SDS011;8168;49.036;7.690;2023-05-10T10:10:56;1.40;;;1.17;;
16127;SDS011;8168;49.036;7.690;2023-05-10T10:13:27;2.07;;;1.00;;
16127;SDS011;8168;49.036;7.690;2023-05-10T10:15:59;1.87;;;1.10;;
16127;SDS011;8168;49.036;7.690;2023-05-10T10:18:30;1.07;;;0.93;;
16127;SDS011;8168;49.036;7.690;2023-05-10T10:21:01;1.50;;;1.03;;
16127;SDS011;8168;49.036;7.690;2023-05-10T10:23:32;0.97;;;0.97;;
16127;SDS011;8168;49.036;7.690;2023-05-10T10:26:03;1.27;;;0.90;;
16127;SDS011;8168;49.036;7.690;2023-05-10T10:31:40;0.77;;;0.77;;
16127;SDS011;8168;49.036;7.690;2023-05-10T10:34:26;1.20;;;1.10;;
16127;SDS011;8168;49.036;7.690;2023-05-10T10:36:59;1.77;;;1.20;;
16127;SDS011;8168;49.036;7.690;2023-05-10T10:39:34;1.57;;;1.00;;
16127;SDS011;8168;49.036;7.690;2023-05-10T10:42:06;1.07;;;1.00;;
16127;SDS011;8168;49.036;7.690;2023-05-10T10:44:37;3.03;;;1.10;;
16127;SDS011;8168;49.036;7.690;2023-05-10T10:49:48;1.67;;;1.07;;
16127;SDS011;8168;49.036;7.690;2023-05-10T10:52:35;1.40;;;1.30;;
16127;SDS011;8168;49.036;7.690;2023-05-10T10:55:11;1.70;;;1.10;;
16127;SDS011;8168;49.036;7.690;2023-05-10T10:57:44;1.03;;;1.00;;
16127;SDS011;8168;49.036;7.690;2023-05-10T11:00:22;1.33;;;1.13;;
16127;SDS011;8168;49.036;7.690;2023-05-10T11:03:04;2.53;;;1.20;;
16127;SDS011;8168;49.036;7.690;2023-05-10T11:05:44;1.73;;;1.47;;
16127;SDS011;8168;49.036;7.690;2023-05-10T11:08:29;1.80;;;1.10;;
16127;SDS011;8168;49.036;7.690;2023-05-10T11:16:23;1.27;;;0.60;;
16127;SDS011;8168;49.036;7.690;2023-05-10T11:19:02;2.57;;;0.80;;
16127;SDS011;8168;49.036;7.690;2023-05-10T11:21:44;0.70;;;0.70;;
16127;SDS011;8168;49.036;7.690;2023-05-10T11:24:41;0.50;;;0.50;;
16127;SDS011;8168;49.036;7.690;2023-05-10T11:27:26;0.60;;;0.60;;
16127;SDS011;8168;49.036;7.690;2023-05-10T11:29:57;0.83;;;0.53;;
16127;SDS011;8168;49.036;7.690;2023-05-10T11:32:28;0.50;;;0.50;;
16127;SDS011;8168;49.036;7.690;2023-05-10T11:34:59;1.57;;;0.70;;
16127;SDS011;8168;49.036;7.690;2023-05-10T11:37:38;0.70;;;0.70;;
16127;SDS011;8168;49.036;7.690;2023-05-10T11:40:13;5.43;;;0.93;;
16127;SDS011;8168;49.036;7.690;2023-05-10T11:42:44;1.43;;;0.70;;
16127;SDS011;8168;49.036;7.690;2023-05-10T11:45:15;1.00;;;0.60;;
16127;SDS011;8168;49.036;7.690;2023-05-10T11:47:48;2.87;;;0.80;;
16127;SDS011;8168;49.036;7.690;2023-05-10T11:50:19;0.80;;;0.80;;
16127;SDS011;8168;49.036;7.690;2023-05-10T11:52:52;2.50;;;0.70;;
16127;SDS011;8168;49.036;7.690;2023-05-10T11:55:24;0.70;;;0.70;;
16127;SDS011;8168;49.036;7.690;2023-05-10T11:57:54;3.27;;;0.57;;
16127;SDS011;8168;49.036;7.690;2023-05-10T12:00:25;0.50;;;0.50;;
16127;SDS011;8168;49.036;7.690;2023-05-10T12:02:56;2.27;;;0.70;;
16127;SDS011;8168;49.036;7.690;2023-05-10T12:05:26;0.60;;;0.60;;
16127;SDS011;8168;49.036;7.690;2023-05-10T12:08:11;1.20;;;1.00;;
16127;SDS011;8168;49.036;7.690;2023-05-10T12:10:45;0.60;;;0.60;;
16127;SDS011;8168;49.036;7.690;2023-05-10T12:13:16;1.40;;;0.40;;
16127;SDS011;8168;49.036;7.690;2023-05-10T12:15:48;0.53;;;0.53;;
16127;SDS011;8168;49.036;7.690;2023-05-10T12:18:22;0.53;;;0.50;;
16127;SDS011;8168;49.036;7.690;2023-05-10T12:21:02;0.40;;;0.40;;
16127;SDS011;8168;49.036;7.690;2023-05-10T12:23:33;0.57;;;0.40;;
16127;SDS011;8168;49.036;7.690;2023-05-10T12:26:04;1.27;;;0.60;;
16127;SDS011;8168;49.036;7.690;2023-05-10T12:28:35;0.53;;;0.40;;
16127;SDS011;8168;49.036;7.690;2023-05-10T12:31:09;0.40;;;0.40;;
16127;SDS011;8168;49.036;7.690;2023-05-10T12:33:44;0.77;;;0.57;;
16127;SDS011;8168;49.036;7.690;2023-05-10T12:36:16;0.50;;;0.50;;
16127;SDS011;8168;49.036;7.690;2023-05-10T12:39:00;0.50;;;0.50;;
16127;SDS011;8168;49.036;7.690;2023-05-10T12:41:32;0.70;;;0.70;;
16127;SDS011;8168;49.036;7.690;2023-05-10T12:44:03;0.73;;;0.70;;
16127;SDS011;8168;49.036;7.690;2023-05-10T12:46:34;0.40;;;0.40;;
16127;SDS011;8168;49.036;7.690;2023-05-10T12:49:04;1.77;;;0.80;;
16127;SDS011;8168;49.036;7.690;2023-05-10T12:51:35;0.50;;;0.50;;
16127;SDS011;8168;49.036;7.690;2023-05-10T12:54:05;1.33;;;0.47;;
16127;SDS011;8168;49.036;7.690;2023-05-10T12:56:36;1.23;;;0.60;;
16127;SDS011;8168;49.036;7.690;2023-05-10T12:59:07;1.20;;;0.73;;
16127;SDS011;8168;49.036;7.690;2023-05-10T13:01:37;1.33;;;0.67;;
16127;SDS011;8168;49.036;7.690;2023-05-10T13:04:08;0.50;;;0.50;;
16127;SDS011;8168;49.036;7.690;2023-05-10T13:06:38;0.67;;;0.67;;
16127;SDS011;8168;49.036;7.690;2023-05-10T13:09:09;1.13;;;0.70;;
16127;SDS011;8168;49.036;7.690;2023-05-10T13:11:40;0.50;;;0.50;;
16127;SDS011;8168;49.036;7.690;2023-05-10T13:14:10;0.40;;;0.40;;
16127;SDS011;8168;49.036;7.690;2023-05-10T13:16:41;0.50;;;0.50;;
16127;SDS011;8168;49.036;7.690;2023-05-10T13:19:12;3.50;;;0.60;;
16127;SDS011;8168;49.036;7.690;2023-05-10T13:21:43;1.83;;;0.60;;
16127;SDS011;8168;49.036;7.690;2023-05-10T13:24:14;0.73;;;0.50;;
16127;SDS011;8168;49.036;7.690;2023-05-10T13:26:45;0.40;;;0.40;;
16127;SDS011;8168;49.036;7.690;2023-05-10T13:29:15;0.40;;;0.40;;
16127;SDS011;8168;49.036;7.690;2023-05-10T13:31:47;0.40;;;0.40;;
16127;SDS011;8168;49.036;7.690;2023-05-10T13:34:18;0.30;;;0.30;;
16127;SDS011;8168;49.036;7.690;2023-05-10T13:36:50;0.33;;;0.33;;
16127;SDS011;8168;49.036;7.690;2023-05-10T13:39:21;0.50;;;0.50;;
16127;SDS011;8168;49.036;7.690;2023-05-10T13:41:52;0.70;;;0.70;;
16127;SDS011;8168;49.036;7.690;2023-05-10T13:44:23;0.53;;;0.53;;
16127;SDS011;8168;49.036;7.690;2023-05-10T13:46:53;0.40;;;0.40;;
16127;SDS011;8168;49.036;7.690;2023-05-10T13:49:24;1.03;;;0.60;;
16127;SDS011;8168;49.036;7.690;2023-05-10T13:51:54;1.50;;;0.87;;
16127;SDS011;8168;49.036;7.690;2023-05-10T13:54:25;0.73;;;0.60;;
16127;SDS011;8168;49.036;7.690;2023-05-10T13:56:59;2.43;;;0.60;;
16127;SDS011;8168;49.036;7.690;2023-05-10T13:59:29;0.60;;;0.60;;
16127;SDS011;8168;49.036;7.690;2023-05-10T14:02:03;0.70;;;0.63;;
16127;SDS011;8168;49.036;7.690;2023-05-10T14:04:34;0.57;;;0.40;;
16127;SDS011;8168;49.036;7.690;2023-05-10T14:07:05;1.37;;;0.60;;
16127;SDS011;8168;49.036;7.690;2023-05-10T14:09:36;0.40;;;0.40;;
16127;SDS011;8168;49.036;7.690;2023-05-10T14:12:06;0.50;;;0.50;;
16127;SDS011;8168;49.036;7.690;2023-05-10T14:14:37;0.60;;;0.60;;
16127;SDS011;8168;49.036;7.690;2023-05-10T14:17:07;0.33;;;0.30;;
16127;SDS011;8168;49.036;7.690;2023-05-10T14:19:38;0.50;;;0.50;;
16127;SDS011;8168;49.036;7.690;2023-05-10T14:22:09;0.70;;;0.70;;
16127;SDS011;8168;49.036;7.690;2023-05-10T14:24:40;0.87;;;0.50;;
16127;SDS011;8168;49.036;7.690;2023-05-10T14:27:10;1.60;;;0.60;;
16127;SDS011;8168;49.036;7.690;2023-05-10T14:29:41;0.40;;;0.40;;
16127;SDS011;8168;49.036;7.690;2023-05-10T14:32:12;1.33;;;0.60;;
16127;SDS011;8168;49.036;7.690;2023-05-10T14:34:42;0.80;;;0.50;;
16127;SDS011;8168;49.036;7.690;2023-05-10T14:37:13;0.60;;;0.60;;
16127;SDS011;8168;49.036;7.690;2023-05-10T14:39:45;5.87;;;0.70;;
16127;SDS011;8168;49.036;7.690;2023-05-10T14:42:15;0.90;;;0.60;;
16127;SDS011;8168;49.036;7.690;2023-05-10T14:44:46;1.93;;;0.60;;
16127;SDS011;8168;49.036;7.690;2023-05-10T14:47:17;1.33;;;0.50;;
16127;SDS011;8168;49.036;7.690;2023-05-10T14:49:47;0.70;;;0.70;;
16127;SDS011;8168;49.036;7.690;2023-05-10T14:52:18;1.17;;;0.60;;
16127;SDS011;8168;49.036;7.690;2023-05-10T14:54:49;0.50;;;0.50;;
16127;SDS011;8168;49.036;7.690;2023-05-10T14:57:19;1.70;;;0.90;;
16127;SDS011;8168;49.036;7.690;2023-05-10T14:59:50;0.90;;;0.50;;
16127;SDS011;8168;49.036;7.690;2023-05-10T15:02:20;1.10;;;0.50;;
16127;SDS011;8168;49.036;7.690;2023-05-10T15:04:51;0.73;;;0.70;;
16127;SDS011;8168;49.036;7.690;2023-05-10T15:07:22;1.93;;;0.70;;
16127;SDS011;8168;49.036;7.690;2023-05-10T15:09:52;0.57;;;0.57;;
16127;SDS011;8168;49.036;7.690;2023-05-10T15:12:24;0.60;;;0.60;;
16127;SDS011;8168;49.036;7.690;2023-05-10T15:14:54;1.63;;;0.50;;
16127;SDS011;8168;49.036;7.690;2023-05-10T15:17:25;0.53;;;0.53;;
16127;SDS011;8168;49.036;7.690;2023-05-10T15:19:55;1.67;;;0.80;;
16127;SDS011;8168;49.036;7.690;2023-05-10T15:22:26;0.60;;;0.60;;
16127;SDS011;8168;49.036;7.690;2023-05-10T15:24:58;0.70;;;0.70;;
16127;SDS011;8168;49.036;7.690;2023-05-10T15:27:29;0.70;;;0.70;;
16127;SDS011;8168;49.036;7.690;2023-05-10T15:29:59;0.67;;;0.67;;
16127;SDS011;8168;49.036;7.690;2023-05-10T15:32:30;0.60;;;0.60;;
16127;SDS011;8168;49.036;7.690;2023-05-10T15:35:01;0.60;;;0.60;;
16127;SDS011;8168;49.036;7.690;2023-05-10T15:37:32;0.70;;;0.70;;
16127;SDS011;8168;49.036;7.690;2023-05-10T15:40:03;0.50;;;0.50;;
16127;SDS011;8168;49.036;7.690;2023-05-10T15:42:34;3.53;;;0.60;;
16127;SDS011;8168;49.036;7.690;2023-05-10T15:45:05;2.07;;;0.60;;
16127;SDS011;8168;49.036;7.690;2023-05-10T15:47:36;0.70;;;0.53;;
16127;SDS011;8168;49.036;7.690;2023-05-10T15:50:09;0.73;;;0.50;;
16127;SDS011;8168;49.036;7.690;2023-05-10T15:52:40;0.80;;;0.70;;
16127;SDS011;8168;49.036;7.690;2023-05-10T15:55:14;0.83;;;0.60;;
16127;SDS011;8168;49.036;7.690;2023-05-10T15:57:45;0.57;;;0.57;;
16127;SDS011;8168;49.036;7.690;2023-05-10T16:00:16;0.83;;;0.57;;
16127;SDS011;8168;49.036;7.690;2023-05-10T16:02:46;0.77;;;0.57;;
16127;SDS011;8168;49.036;7.690;2023-05-10T16:05:17;1.33;;;0.60;;